Time;durP1;ratioP1;P1;durP2;ratioP2;P2;SDS_P1;SDS_P2;PMS_P1;PMS_P2;Temp;Humidity;BMP_temperature;BMP_pressure;BME280_temperature;BME280_humidity;BME280_pressure;Samples;Min_cycle;Max_cycle;Signal;HPM_P1;HPM_P2
2023/03/19 00:01:24;;;;;;;18.67;16.38;;;11.40;99.90;;;;;;6279286;22;20018;-91
2023/03/19 00:03:50;;;;;;;21.10;18.55;;;11.30;99.90;;;;;;6251682;22;20008;-91
2023/03/19 00:06:16;;;;;;;18.65;15.18;;;11.30;99.90;;;;;;6251527;22;20058;-91
2023/03/19 00:08:41;;;;;;;18.73;15.32;;;11.30;99.90;;;;;;6278685;22;20019;-90
2023/03/19 00:11:08;;;;;;;22.10;18.02;;;11.30;99.90;;;;;;6251781;22;20340;-91
2023/03/19 00:13:34;;;;;;;25.10;18.73;;;11.30;99.90;;;;;;6251176;22;20302;-91
2023/03/19 00:16:00;;;;;;;19.23;16.98;;;11.20;99.90;;;;;;6278941;22;20046;-91
2023/03/19 00:18:26;;;;;;;23.50;16.92;;;11.20;99.90;;;;;;6278669;22;20053;-91
2023/03/19 00:20:52;;;;;;;18.23;16.13;;;11.20;99.90;;;;;;6252063;22;20012;-91
2023/03/19 00:23:17;;;;;;;17.63;15.73;;;11.20;99.90;;;;;;6251143;22;20019;-92
2023/03/19 00:25:43;;;;;;;19.17;17.15;;;11.20;99.90;;;;;;6252029;22;20019;-92
2023/03/19 00:28:09;;;;;;;20.17;16.60;;;11.20;99.90;;;;;;6251482;22;20336;-91
2023/03/19 00:30:35;;;;;;;19.70;17.60;;;11.20;99.90;;;;;;6277880;22;20012;-92
2023/03/19 00:33:01;;;;;;;18.55;15.70;;;11.20;99.90;;;;;;6251782;22;20065;-92
2023/03/19 00:35:27;;;;;;;20.27;16.80;;;11.20;99.90;;;;;;6251206;22;20004;-92
2023/03/19 00:37:54;;;;;;;18.63;16.55;;;11.20;99.90;;;;;;6278718;22;20019;-92
2023/03/19 00:40:19;;;;;;;18.25;15.93;;;11.20;99.90;;;;;;6251473;22;20064;-92
2023/03/19 00:42:45;;;;;;;18.35;16.08;;;11.20;99.90;;;;;;6278515;22;20019;-92
2023/03/19 00:45:12;;;;;;;18.25;15.95;;;11.20;99.90;;;;;;6278187;22;20012;-92
2023/03/19 00:47:37;;;;;;;18.83;16.55;;;11.20;99.90;;;;;;6251707;22;20014;-91
2023/03/19 00:50:05;;;;;;;18.83;15.40;;;11.20;99.90;;;;;;6251697;22;20366;-92
2023/03/19 00:52:31;;;;;;;19.63;16.25;;;11.10;99.90;;;;;;6250780;22;20011;-92
2023/03/19 00:54:56;;;;;;;17.20;15.40;;;11.10;99.90;;;;;;6251310;22;20051;-90
2023/03/19 00:57:22;;;;;;;19.63;16.25;;;11.10;99.90;;;;;;6278232;22;20023;-91
2023/03/19 00:59:48;;;;;;;17.08;15.30;;;11.20;99.90;;;;;;6250913;22;20412;-91
2023/03/19 01:02:14;;;;;;;17.02;15.23;;;11.20;99.90;;;;;;6277748;22;20336;-91
2023/03/19 01:04:39;;;;;;;19.00;15.68;;;11.20;99.90;;;;;;6251462;22;20024;-91
2023/03/19 01:07:05;;;;;;;18.05;15.40;;;11.20;99.90;;;;;;6251166;22;20339;-91
2023/03/19 01:09:31;;;;;;;17.52;15.05;;;11.20;99.90;;;;;;6250974;22;20011;-91
2023/03/19 01:11:57;;;;;;;17.48;15.32;;;11.10;99.90;;;;;;6250932;22;20011;-91
2023/03/19 01:14:23;;;;;;;17.70;14.95;;;11.10;99.90;;;;;;6250848;22;20547;-91
2023/03/19 01:16:49;;;;;;;17.75;15.23;;;11.10;99.90;;;;;;6251192;22;20026;-91
2023/03/19 01:19:15;;;;;;;18.05;13.57;;;11.10;99.90;;;;;;6250362;22;20317;-91
2023/03/19 01:21:44;;;;;;;17.58;14.18;;;11.20;99.90;;;;;;6251212;22;20016;-91
2023/03/19 01:24:11;;;;;;;18.13;14.07;;;11.10;99.90;;;;;;6251091;22;20455;-92
2023/03/19 01:26:37;;;;;;;16.23;13.77;;;11.10;99.90;;;;;;6277919;22;20011;-91
2023/03/19 01:29:03;;;;;;;17.50;14.63;;;11.20;99.90;;;;;;6251585;22;20038;-92
2023/03/19 01:31:29;;;;;;;15.07;13.20;;;11.10;99.90;;;;;;6278423;22;20023;-90
2023/03/19 01:33:55;;;;;;;16.70;14.05;;;11.10;99.90;;;;;;6250680;22;20038;-91
2023/03/19 01:36:21;;;;;;;16.60;13.00;;;11.10;99.90;;;;;;6250938;22;20436;-92
2023/03/19 01:38:46;;;;;;;16.67;13.07;;;11.10;99.90;;;;;;6250915;22;20019;-90
2023/03/19 01:41:12;;;;;;;15.38;12.77;;;11.10;99.90;;;;;;6248577;22;20463;-90
2023/03/19 01:43:38;;;;;;;13.68;10.23;;;11.10;99.90;;;;;;6278151;22;20019;-92
2023/03/19 01:46:25;;;;;;;15.60;11.98;;;11.10;99.90;;;;;;6277688;22;20018;-91
2023/03/19 01:48:53;;;;;;;14.82;10.20;;;11.10;99.90;;;;;;6250243;22;20016;-91
2023/03/19 01:51:25;;;;;;;14.68;10.02;;;11.10;99.90;;;;;;6250070;22;20535;-90
2023/03/19 01:53:59;;;;;;;13.25;10.90;;;11.00;99.90;;;;;;6277828;22;20012;-90
2023/03/19 01:56:32;;;;;;;15.10;12.20;;;11.10;99.90;;;;;;6276511;22;20035;-90
2023/03/19 01:59:03;;;;;;;11.27;8.90;;;11.00;99.90;;;;;;6277694;22;20020;-89
2023/03/19 02:01:33;;;;;;;15.50;11.52;;;11.00;99.90;;;;;;6276929;22;20047;-90
2023/03/19 02:03:59;;;;;;;11.60;8.88;;;11.00;99.90;;;;;;6277863;22;20448;-91
2023/03/19 02:06:27;;;;;;;12.82;10.50;;;11.00;99.90;;;;;;6250438;22;20011;-91
2023/03/19 02:08:53;;;;;;;13.93;10.82;;;11.00;99.90;;;;;;6250271;22;20022;-92
2023/03/19 02:11:19;;;;;;;11.85;8.93;;;11.00;99.90;;;;;;6277977;22;20012;-91
2023/03/19 02:13:46;;;;;;;13.95;9.95;;;10.90;99.90;;;;;;6250569;22;20043;-92
2023/03/19 02:16:12;;;;;;;11.10;8.02;;;11.00;99.90;;;;;;6249634;22;20336;-92
2023/03/19 02:18:37;;;;;;;11.40;8.43;;;11.00;99.90;;;;;;6277957;22;20018;-90
2023/03/19 02:21:09;;;;;;;14.82;8.70;;;11.00;99.90;;;;;;6250219;22;20012;-91
2023/03/19 02:23:54;;;;;;;11.88;8.70;;;11.00;99.90;;;;;;6277724;22;20047;-92
2023/03/19 02:26:22;;;;;;;10.88;8.23;;;10.90;99.90;;;;;;6250321;22;20385;-92
2023/03/19 02:28:50;;;;;;;14.88;9.10;;;10.90;99.90;;;;;;6277970;22;20017;-91
2023/03/19 02:31:17;;;;;;;9.15;6.90;;;10.90;99.90;;;;;;6276761;22;20016;-91
2023/03/19 02:33:43;;;;;;;9.55;6.20;;;10.90;99.90;;;;;;6277615;22;20341;-92
2023/03/19 02:36:16;;;;;;;11.35;10.02;;;10.90;99.90;;;;;;6250014;22;20023;-92
2023/03/19 02:38:43;;;;;;;9.40;5.88;;;10.90;99.90;;;;;;6250634;22;20015;-91
2023/03/19 02:41:09;;;;;;;12.60;8.50;;;10.90;99.90;;;;;;6250570;22;20035;-91
2023/03/19 02:43:38;;;;;;;10.80;8.23;;;10.90;99.90;;;;;;6277551;22;20046;-91
2023/03/19 02:46:07;;;;;;;10.57;8.57;;;10.90;99.90;;;;;;6277673;22;20034;-92
2023/03/19 02:48:33;;;;;;;8.27;6.00;;;10.80;99.90;;;;;;6250133;22;20034;-91
2023/03/19 02:50:59;;;;;;;12.18;6.72;;;10.80;99.90;;;;;;6250502;22;20016;-93
2023/03/19 02:53:25;;;;;;;9.93;6.65;;;10.80;99.90;;;;;;6251897;22;20023;-93
2023/03/19 02:55:50;;;;;;;9.05;5.68;;;10.80;99.90;;;;;;6252902;22;20085;-91
2023/03/19 02:58:16;;;;;;;10.65;8.32;;;10.90;99.90;;;;;;6252124;22;20099;-91
2023/03/19 03:00:42;;;;;;;10.75;8.48;;;10.80;99.90;;;;;;6280088;22;20007;-91
2023/03/19 03:03:08;;;;;;;8.50;5.70;;;10.80;99.90;;;;;;6252690;22;20450;-92
2023/03/19 03:05:34;;;;;;;8.52;5.97;;;10.80;99.90;;;;;;6252614;22;20027;-92
2023/03/19 03:08:00;;;;;;;10.98;6.45;;;10.80;99.90;;;;;;6280119;22;20016;-92
2023/03/19 03:10:26;;;;;;;9.25;6.38;;;10.80;99.90;;;;;;6252414;22;20562;-92
2023/03/19 03:12:52;;;;;;;8.30;5.00;;;10.80;99.90;;;;;;6251813;22;20090;-92
2023/03/19 03:15:17;;;;;;;7.57;4.72;;;10.80;99.90;;;;;;6251986;22;20051;-91
2023/03/19 03:17:44;;;;;;;7.78;6.03;;;10.80;99.90;;;;;;6252449;22;20015;-92
2023/03/19 03:20:12;;;;;;;8.07;4.30;;;10.80;99.90;;;;;;6278964;22;20023;-92
2023/03/19 03:22:38;;;;;;;7.75;5.07;;;10.80;99.90;;;;;;6252646;22;20008;-91
2023/03/19 03:25:05;;;;;;;7.78;4.40;;;10.70;99.90;;;;;;6279815;22;20015;-92
2023/03/19 03:27:31;;;;;;;9.95;6.70;;;10.70;99.90;;;;;;6251911;22;20043;-92
2023/03/19 03:29:57;;;;;;;7.28;5.22;;;10.70;99.90;;;;;;6252665;22;20041;-92
2023/03/19 03:32:23;;;;;;;7.55;5.55;;;10.80;99.90;;;;;;6279005;22;20015;-92
2023/03/19 03:34:49;;;;;;;7.20;5.07;;;10.70;99.90;;;;;;6251630;22;20047;-91
2023/03/19 03:37:16;;;;;;;9.02;6.55;;;10.70;99.90;;;;;;6252096;22;20023;-91
2023/03/19 03:39:42;;;;;;;6.35;4.43;;;10.80;99.90;;;;;;6252020;22;20015;-90
2023/03/19 03:42:07;;;;;;;5.72;4.00;;;10.70;99.90;;;;;;6279814;22;20156;-91
2023/03/19 03:44:33;;;;;;;8.00;4.90;;;10.80;99.90;;;;;;6252670;22;20030;-91
2023/03/19 03:46:58;;;;;;;6.05;3.72;;;10.70;99.90;;;;;;6252392;22;20008;-92
2023/03/19 03:49:24;;;;;;;7.05;4.50;;;10.70;99.90;;;;;;6252813;22;20035;-92
2023/03/19 03:51:50;;;;;;;6.25;3.65;;;10.70;99.90;;;;;;6279907;22;20355;-91
2023/03/19 03:54:16;;;;;;;8.35;3.97;;;10.70;99.90;;;;;;6252360;22;20020;-93
2023/03/19 03:56:42;;;;;;;6.75;4.43;;;10.70;99.90;;;;;;6252646;22;20008;-92
2023/03/19 03:59:08;;;;;;;6.53;4.05;;;10.70;99.90;;;;;;6251998;22;20094;-91
2023/03/19 04:01:34;;;;;;;6.75;5.07;;;10.70;99.90;;;;;;6252194;22;20020;-92
2023/03/19 04:04:00;;;;;;;6.18;3.67;;;10.70;99.90;;;;;;6252227;22;20015;-92
2023/03/19 04:06:26;;;;;;;5.57;3.78;;;10.70;99.90;;;;;;6279106;22;20012;-92
2023/03/19 04:08:52;;;;;;;9.05;4.00;;;10.60;99.90;;;;;;6252609;22;20063;-92
2023/03/19 04:11:19;;;;;;;7.68;4.22;;;10.70;99.90;;;;;;6279404;22;20110;-93
2023/03/19 04:13:45;;;;;;;5.88;4.10;;;10.60;99.90;;;;;;6278922;22;20022;-93
2023/03/19 04:16:11;;;;;;;7.47;3.92;;;10.60;99.90;;;;;;6251801;22;20012;-92
2023/03/19 04:18:37;;;;;;;7.15;4.80;;;10.60;99.90;;;;;;6252652;22;20019;-92
2023/03/19 04:21:04;;;;;;;6.30;3.80;;;10.60;99.90;;;;;;6252068;22;20008;-93
2023/03/19 04:23:29;;;;;;;5.90;3.55;;;10.60;99.90;;;;;;6251885;22;20856;-92
2023/03/19 04:26:00;;;;;;;6.50;4.20;;;10.60;99.90;;;;;;6252264;22;20047;-93
2023/03/19 04:28:26;;;;;;;6.57;4.25;;;10.60;99.90;;;;;;6279170;22;20011;-93
2023/03/19 04:30:52;;;;;;;6.53;3.60;;;10.60;99.90;;;;;;6278657;22;20370;-92
2023/03/19 04:33:18;;;;;;;6.47;4.30;;;10.60;99.90;;;;;;6252257;22;20259;-91
2023/03/19 04:35:43;;;;;;;7.97;4.90;;;10.60;99.90;;;;;;6252002;22;20067;-92
2023/03/19 04:38:09;;;;;;;7.68;4.57;;;10.50;99.90;;;;;;6251698;22;20012;-92
2023/03/19 04:40:34;;;;;;;7.57;4.57;;;10.50;99.90;;;;;;6252341;22;20018;-92
2023/03/19 04:43:01;;;;;;;7.38;4.88;;;10.50;99.90;;;;;;6278622;22;20459;-91
2023/03/19 04:45:27;;;;;;;7.25;4.80;;;10.50;99.90;;;;;;6278799;22;20428;-91
2023/03/19 04:47:52;;;;;;;6.93;4.65;;;10.50;99.90;;;;;;6251556;22;20138;-92
2023/03/19 04:50:18;;;;;;;8.23;4.70;;;10.40;99.90;;;;;;6251307;22;20068;-92
2023/03/19 04:52:44;;;;;;;7.40;4.68;;;10.50;99.90;;;;;;6279182;22;20016;-93
2023/03/19 04:55:10;;;;;;;6.78;4.50;;;10.40;99.90;;;;;;6251753;22;20103;-92
2023/03/19 04:57:36;;;;;;;8.65;5.70;;;10.40;99.90;;;;;;6251530;22;20070;-93
2023/03/19 05:00:02;;;;;;;6.53;4.53;;;10.40;99.90;;;;;;6279032;22;20362;-93
2023/03/19 05:02:27;;;;;;;7.20;4.85;;;10.30;99.90;;;;;;6250933;22;20008;-92
2023/03/19 05:04:53;;;;;;;7.50;4.25;;;10.30;99.90;;;;;;6278830;22;20019;-95
2023/03/19 05:07:19;;;;;;;6.75;4.65;;;10.30;99.90;;;;;;6279197;22;20055;-94
2023/03/19 05:09:45;;;;;;;6.40;4.57;;;10.30;99.90;;;;;;6279495;22;20035;-95
2023/03/19 05:12:11;;;;;;;9.27;5.38;;;10.30;99.90;;;;;;6278280;22;20091;-95
2023/03/19 05:14:37;;;;;;;6.45;4.40;;;10.20;99.90;;;;;;6252144;22;20027;-94
2023/03/19 05:17:03;;;;;;;6.85;4.88;;;10.20;99.90;;;;;;6251795;22;20011;-95
2023/03/19 05:19:29;;;;;;;7.25;4.63;;;10.20;99.90;;;;;;6279028;22;20094;-94
2023/03/19 05:21:56;;;;;;;8.73;5.20;;;10.10;99.90;;;;;;6280172;22;20548;-95
2023/03/19 05:24:22;;;;;;;8.13;4.30;;;10.10;99.90;;;;;;6252342;22;20015;-95
2023/03/19 05:26:48;;;;;;;6.15;4.57;;;10.20;99.90;;;;;;6252299;22;20020;-94
2023/03/19 05:29:14;;;;;;;6.88;4.45;;;10.10;99.90;;;;;;6251869;22;20035;-94
2023/03/19 05:31:40;;;;;;;6.40;4.40;;;10.10;99.90;;;;;;6255505;22;20026;-94
2023/03/19 05:34:06;;;;;;;6.88;4.43;;;10.10;99.90;;;;;;6283503;22;20059;-95
2023/03/19 05:36:32;;;;;;;6.57;4.35;;;10.10;99.90;;;;;;6262779;22;20020;-96
2023/03/19 05:38:58;;;;;;;5.85;4.05;;;10.00;99.90;;;;;;6285836;22;20003;-94
2023/03/19 05:41:25;;;;;;;6.03;4.03;;;10.10;99.90;;;;;;6254877;22;20016;-95
2023/03/19 05:43:50;;;;;;;5.85;4.15;;;10.00;99.90;;;;;;6257318;22;20391;-96
2023/03/19 05:46:16;;;;;;;7.70;4.68;;;10.00;99.90;;;;;;6255313;22;20016;-95
2023/03/19 05:48:42;;;;;;;6.47;4.22;;;10.00;99.90;;;;;;6252724;22;20415;-95
2023/03/19 05:51:08;;;;;;;5.82;4.15;;;10.00;99.90;;;;;;6252394;22;20336;-95
2023/03/19 05:53:34;;;;;;;5.95;4.57;;;10.00;99.90;;;;;;6282353;22;20020;-95
2023/03/19 05:56:01;;;;;;;6.97;4.18;;;9.90;99.90;;;;;;6265590;22;20016;-95
2023/03/19 05:58:27;;;;;;;7.65;4.35;;;9.90;99.90;;;;;;6263504;22;20042;-95
2023/03/19 06:00:56;;;;;;;6.15;4.35;;;9.90;99.90;;;;;;6295002;22;20011;-96
2023/03/19 06:03:42;;;;;;;6.80;4.18;;;9.90;99.90;;;;;;6279640;22;20023;-96
2023/03/19 06:06:13;;;;;;;6.72;4.20;;;9.90;99.90;;;;;;6249764;22;20026;-96
2023/03/19 06:08:39;;;;;;;6.22;4.60;;;9.90;99.90;;;;;;6234623;22;20051;-95
2023/03/19 06:11:08;;;;;;;6.13;4.40;;;9.90;99.90;;;;;;6299750;22;20046;-96
2023/03/19 06:13:42;;;;;;;5.57;3.85;;;9.80;99.90;;;;;;6265650;22;20083;-96
2023/03/19 06:16:39;;;;;;;6.20;4.18;;;9.80;99.90;;;;;;6248107;22;20031;-96
2023/03/19 06:19:34;;;;;;;7.25;4.07;;;9.80;99.90;;;;;;6299020;22;20015;-96
2023/03/19 06:22:00;;;;;;;6.15;4.43;;;9.70;99.90;;;;;;6298779;22;20019;-96
2023/03/19 06:24:29;;;;;;;6.93;4.82;;;9.80;99.90;;;;;;6269106;22;20023;-96
2023/03/19 06:26:58;;;;;;;8.52;5.28;;;9.80;99.90;;;;;;6293034;22;20050;-96
2023/03/19 06:29:24;;;;;;;9.00;4.93;;;9.70;99.90;;;;;;6298274;22;20056;-95
2023/03/19 06:35:10;;;;;;;8.27;5.28;;;9.70;99.90;;;;;;6296428;22;20020;-95
2023/03/19 06:37:36;;;;;;;7.10;5.40;;;9.70;99.90;;;;;;6267381;22;20042;-94
2023/03/19 06:40:03;;;;;;;8.88;5.88;;;9.80;99.90;;;;;;6252684;22;20012;-92
2023/03/19 06:42:30;;;;;;;7.20;4.40;;;9.70;99.90;;;;;;6250205;22;20339;-93
2023/03/19 06:44:59;;;;;;;9.10;5.75;;;9.70;99.90;;;;;;6258111;22;20050;-95
2023/03/19 06:47:29;;;;;;;8.57;5.30;;;9.70;99.90;;;;;;6241302;22;20073;-96
2023/03/19 06:50:09;;;;;;;8.07;6.00;;;9.70;99.90;;;;;;6200427;23;20492;-96
2023/03/19 06:52:37;;;;;;;9.20;5.25;;;9.70;99.90;;;;;;6231583;23;20005;-96
2023/03/19 06:55:11;;;;;;;7.72;6.05;;;9.70;99.90;;;;;;6176908;23;20025;-95
2023/03/19 06:57:37;;;;;;;7.55;5.28;;;9.70;99.90;;;;;;6167348;23;20082;-94
2023/03/19 07:00:04;;;;;;;10.15;5.85;;;9.60;99.90;;;;;;6191962;23;20020;-93
2023/03/19 07:02:30;;;;;;;10.57;7.03;;;9.70;99.90;;;;;;6216182;23;20083;-94
2023/03/19 07:04:55;;;;;;;9.20;5.97;;;9.70;99.90;;;;;;6218332;23;20021;-95
2023/03/19 07:07:21;;;;;;;9.38;6.22;;;9.60;99.90;;;;;;6218851;23;20048;-95
2023/03/19 07:09:47;;;;;;;9.25;6.28;;;9.60;99.90;;;;;;6194638;23;20024;-95
2023/03/19 07:12:12;;;;;;;8.35;6.43;;;9.60;99.90;;;;;;6224474;23;20020;-95
2023/03/19 07:14:38;;;;;;;11.23;7.43;;;9.60;99.90;;;;;;6221498;23;20024;-95
2023/03/19 07:17:04;;;;;;;9.25;7.07;;;9.70;99.90;;;;;;6197917;23;20016;-95
2023/03/19 07:19:29;;;;;;;10.93;7.80;;;9.70;99.90;;;;;;6216739;23;20025;-92
2023/03/19 07:21:55;;;;;;;8.43;6.70;;;9.70;99.90;;;;;;6244353;22;20023;-94
2023/03/19 07:24:21;;;;;;;10.45;7.95;;;9.70;99.90;;;;;;6279691;22;20022;-94
2023/03/19 07:26:46;;;;;;;10.07;6.65;;;9.70;99.90;;;;;;6279376;22;20011;-95
2023/03/19 07:29:12;;;;;;;11.43;8.30;;;9.80;99.90;;;;;;6253550;22;20019;-96
2023/03/19 07:31:38;;;;;;;11.25;8.77;;;9.80;99.90;;;;;;6281694;22;20047;-93
2023/03/19 07:34:04;;;;;;;12.43;7.22;;;9.90;99.90;;;;;;6281036;22;20475;-94
2023/03/19 07:36:30;;;;;;;10.93;8.30;;;9.90;99.90;;;;;;6251804;22;20443;-94
2023/03/19 07:38:56;;;;;;;13.02;8.35;;;10.00;99.90;;;;;;6252477;22;20020;-92
2023/03/19 07:41:22;;;;;;;9.35;7.55;;;10.00;99.90;;;;;;6258595;22;20340;-95
2023/03/19 07:43:48;;;;;;;13.30;9.13;;;10.10;99.90;;;;;;6284011;22;20016;-96
2023/03/19 07:46:14;;;;;;;12.25;9.20;;;10.10;99.90;;;;;;6261123;22;20375;-96
2023/03/19 07:48:40;;;;;;;12.07;9.63;;;10.20;99.90;;;;;;6254481;22;20047;-96
2023/03/19 07:51:06;;;;;;;14.57;10.23;;;10.30;99.90;;;;;;6257541;22;20022;-96
2023/03/19 07:53:31;;;;;;;14.02;9.10;;;10.30;99.90;;;;;;6254254;22;20344;-96
2023/03/19 07:55:57;;;;;;;11.57;8.77;;;10.40;99.90;;;;;;6280934;22;20012;-96
2023/03/19 07:58:23;;;;;;;11.40;9.38;;;10.50;99.90;;;;;;6253749;22;20026;-96
2023/03/19 08:00:48;;;;;;;11.02;9.00;;;10.50;99.90;;;;;;6253409;22;20016;-96
2023/03/19 08:03:14;;;;;;;12.30;9.70;;;10.60;99.90;;;;;;6280195;22;20012;-94
2023/03/19 08:05:40;;;;;;;12.10;9.60;;;10.60;99.90;;;;;;6280497;22;20071;-94
2023/03/19 08:08:06;;;;;;;13.38;8.82;;;10.60;99.90;;;;;;6253134;22;20016;-96
2023/03/19 08:10:32;;;;;;;12.27;9.15;;;10.70;99.90;;;;;;6252977;22;20043;-93
2023/03/19 08:12:57;;;;;;;12.73;9.55;;;10.70;99.90;;;;;;6252614;22;20022;-94
2023/03/19 08:15:23;;;;;;;14.32;10.07;;;10.70;99.90;;;;;;6252605;22;20011;-93
2023/03/19 08:17:55;;;;;;;15.43;9.68;;;10.70;99.90;;;;;;6252661;22;20020;-94
2023/03/19 08:20:21;;;;;;;13.67;10.17;;;10.80;99.90;;;;;;6279437;22;20011;-93
2023/03/19 08:22:49;;;;;;;10.93;9.60;;;10.80;99.90;;;;;;6279706;22;20300;-96
2023/03/19 08:25:14;;;;;;;10.75;9.18;;;10.80;99.90;;;;;;6252497;22;20087;-93
2023/03/19 08:27:40;;;;;;;13.15;9.77;;;10.80;99.90;;;;;;6252794;22;20012;-95
2023/03/19 08:30:07;;;;;;;12.80;10.02;;;10.90;99.90;;;;;;6280034;22;20530;-95
2023/03/19 08:32:34;;;;;;;14.15;10.35;;;10.80;99.90;;;;;;6282405;22;20019;-95
2023/03/19 08:35:00;;;;;;;13.15;10.07;;;10.90;99.90;;;;;;6253086;22;20019;-95
2023/03/19 08:37:25;;;;;;;12.65;9.80;;;10.90;99.90;;;;;;6279521;22;20015;-94
2023/03/19 08:39:51;;;;;;;13.93;10.13;;;10.90;99.90;;;;;;6252780;22;20044;-95
2023/03/19 08:42:18;;;;;;;11.70;9.45;;;11.00;99.90;;;;;;6279477;22;20008;-95
2023/03/19 08:44:44;;;;;;;13.90;9.77;;;11.00;99.90;;;;;;6252794;22;20500;-96
2023/03/19 08:47:10;;;;;;;11.60;9.50;;;11.00;99.90;;;;;;6280720;22;20019;-94
2023/03/19 08:49:36;;;;;;;12.82;10.13;;;11.10;99.90;;;;;;6251967;22;20019;-94
2023/03/19 08:52:01;;;;;;;11.13;9.75;;;11.10;99.90;;;;;;6279048;22;20015;-94
2023/03/19 08:54:27;;;;;;;14.15;10.32;;;11.10;99.90;;;;;;6279112;22;20049;-93
2023/03/19 08:56:53;;;;;;;12.88;11.02;;;11.10;99.90;;;;;;6252194;22;20328;-91
2023/03/19 08:59:18;;;;;;;14.95;11.13;;;11.10;99.90;;;;;;6278843;22;20016;-93
2023/03/19 09:01:44;;;;;;;13.45;10.88;;;11.20;99.90;;;;;;6279300;22;20367;-92
2023/03/19 09:04:10;;;;;;;12.82;10.57;;;11.20;99.90;;;;;;6278372;22;20083;-94
2023/03/19 09:06:35;;;;;;;15.45;10.43;;;11.20;99.90;;;;;;6279754;22;20018;-92
2023/03/19 09:09:01;;;;;;;15.43;10.60;;;11.20;99.90;;;;;;6251826;22;20069;-92
2023/03/19 09:11:26;;;;;;;14.50;10.88;;;11.20;99.90;;;;;;6278148;22;20090;-92
2023/03/19 09:13:52;;;;;;;14.15;10.85;;;11.20;99.90;;;;;;6251714;22;20051;-93
2023/03/19 09:16:18;;;;;;;14.98;10.75;;;11.20;99.90;;;;;;6251754;22;20460;-92
2023/03/19 09:18:44;;;;;;;13.75;10.25;;;11.30;99.90;;;;;;6251191;22;20047;-93
2023/03/19 09:21:10;;;;;;;12.48;9.60;;;11.30;99.90;;;;;;6279022;22;20015;-93
2023/03/19 09:23:35;;;;;;;11.88;9.85;;;11.30;99.90;;;;;;6251951;22;20012;-93
2023/03/19 09:26:01;;;;;;;14.60;10.82;;;11.30;99.90;;;;;;6251623;22;20016;-93
2023/03/19 09:28:26;;;;;;;12.88;10.07;;;11.30;99.90;;;;;;6251615;22;20444;-93
2023/03/19 09:30:52;;;;;;;12.02;10.18;;;11.40;99.90;;;;;;6278660;22;20023;-93
2023/03/19 09:33:20;;;;;;;13.23;9.80;;;11.30;99.90;;;;;;6277490;22;20082;-92
2023/03/19 09:35:54;;;;;;;10.18;8.98;;;11.40;99.90;;;;;;6278792;22;20008;-92
2023/03/19 09:38:22;;;;;;;11.63;9.25;;;11.50;99.90;;;;;;6250920;22;20065;-92
2023/03/19 09:41:03;;;;;;;11.43;8.75;;;11.50;99.90;;;;;;6250878;22;20012;-91
2023/03/19 09:43:39;;;;;;;13.75;9.25;;;11.50;99.90;;;;;;6250961;22;20502;-92
2023/03/19 09:46:19;;;;;;;13.00;9.70;;;11.50;99.90;;;;;;6250561;22;20073;-92
2023/03/19 09:48:48;;;;;;;13.05;9.63;;;11.60;99.90;;;;;;6251615;22;20012;-92
2023/03/19 09:51:20;;;;;;;11.27;9.65;;;11.60;99.90;;;;;;6250867;22;20023;-92
2023/03/19 09:53:49;;;;;;;13.82;9.80;;;11.60;99.90;;;;;;6250395;22;20061;-93
2023/03/19 09:56:15;;;;;;;14.77;9.65;;;11.60;99.90;;;;;;6278200;22;20045;-93
2023/03/19 09:58:42;;;;;;;12.57;9.48;;;11.60;99.90;;;;;;6251199;22;20020;-92
2023/03/19 10:01:29;;;;;;;12.55;9.95;;;11.70;99.90;;;;;;6250435;22;20074;-92
2023/03/19 10:04:03;;;;;;;12.57;9.43;;;11.70;99.90;;;;;;6250852;22;20360;-93
2023/03/19 10:06:34;;;;;;;12.13;9.38;;;11.80;99.90;;;;;;6277906;22;20363;-92
2023/03/19 10:09:11;;;;;;;13.38;9.77;;;11.70;99.90;;;;;;6251287;22;20019;-92
2023/03/19 10:12:08;;;;;;;13.00;9.93;;;11.80;99.90;;;;;;6278391;22;20012;-92
2023/03/19 10:14:46;;;;;;;12.73;9.18;;;11.80;99.90;;;;;;6277489;22;20055;-93
2023/03/19 10:17:21;;;;;;;12.88;9.73;;;11.80;99.90;;;;;;6250793;22;20050;-93
2023/03/19 10:19:53;;;;;;;11.68;9.52;;;11.90;99.90;;;;;;6250843;22;20055;-92
2023/03/19 10:22:26;;;;;;;11.60;9.67;;;11.90;99.90;;;;;;6249926;22;20043;-92
2023/03/19 10:24:55;;;;;;;13.38;10.02;;;11.90;99.90;;;;;;6278349;22;20016;-92
2023/03/19 10:27:24;;;;;;;11.93;9.45;;;11.90;99.90;;;;;;6250339;22;20043;-92
2023/03/19 10:29:51;;;;;;;13.85;9.55;;;11.90;99.90;;;;;;6250323;22;20026;-92
2023/03/19 10:32:27;;;;;;;13.85;9.70;;;11.90;99.90;;;;;;6250490;22;20073;-92
2023/03/19 10:34:53;;;;;;;13.07;10.32;;;11.90;99.90;;;;;;6250462;22;20067;-92
2023/03/19 10:37:25;;;;;;;13.05;10.30;;;11.90;99.90;;;;;;6250426;22;20051;-92
2023/03/19 10:39:55;;;;;;;11.93;10.07;;;12.00;99.90;;;;;;6250762;22;20020;-91
2023/03/19 10:42:33;;;;;;;12.25;9.82;;;12.00;99.90;;;;;;6249823;22;20054;-91
2023/03/19 10:45:25;;;;;;;12.45;10.57;;;12.00;99.90;;;;;;6278051;22;20340;-91
2023/03/19 10:47:52;;;;;;;12.82;10.98;;;12.00;99.90;;;;;;6250988;22;20016;-91
2023/03/19 10:50:22;;;;;;;16.02;10.93;;;12.00;99.90;;;;;;6249874;22;20094;-91
2023/03/19 10:52:59;;;;;;;12.63;10.35;;;12.00;99.90;;;;;;6251186;22;20046;-91
2023/03/19 10:55:29;;;;;;;12.25;10.82;;;12.00;99.90;;;;;;6250419;22;20039;-93
2023/03/19 10:58:15;;;;;;;13.60;11.57;;;12.00;99.90;;;;;;6249841;22;20057;-92
2023/03/19 11:00:44;;;;;;;15.52;11.27;;;12.00;99.90;;;;;;6250640;22;20095;-91
2023/03/19 11:03:31;;;;;;;12.63;11.10;;;12.10;99.90;;;;;;6249666;22;20027;-91
2023/03/19 11:06:06;;;;;;;14.75;11.57;;;12.10;99.90;;;;;;6250620;22;20020;-92
2023/03/19 11:08:38;;;;;;;12.75;11.23;;;12.10;99.90;;;;;;6250336;22;20012;-92
2023/03/19 11:11:04;;;;;;;15.75;12.57;;;12.10;99.90;;;;;;6249850;22;20012;-92
2023/03/19 11:13:32;;;;;;;13.85;12.27;;;12.10;99.90;;;;;;6253133;22;20016;-92
2023/03/19 11:16:00;;;;;;;14.80;12.10;;;12.20;99.90;;;;;;6279781;22;20083;-93
2023/03/19 11:18:35;;;;;;;14.98;12.07;;;12.20;99.90;;;;;;6278179;22;20011;-92
2023/03/19 11:21:07;;;;;;;13.75;11.63;;;12.20;99.90;;;;;;6252435;22;20439;-92
2023/03/19 11:23:40;;;;;;;14.65;12.07;;;12.10;99.90;;;;;;6252535;22;20069;-92
2023/03/19 11:26:06;;;;;;;15.98;12.48;;;12.20;99.90;;;;;;6279007;22;20058;-92
2023/03/19 11:28:35;;;;;;;17.75;13.68;;;12.10;99.90;;;;;;6252170;22;20019;-92
2023/03/19 11:31:14;;;;;;;14.52;12.60;;;12.20;99.90;;;;;;6251337;22;20019;-94
2023/03/19 11:34:01;;;;;;;16.35;13.30;;;12.20;99.90;;;;;;6283303;22;20015;-93
2023/03/19 11:36:40;;;;;;;16.33;14.27;;;12.20;99.90;;;;;;6251965;22;20019;-91
2023/03/19 11:39:24;;;;;;;16.92;14.25;;;12.20;99.90;;;;;;6250514;22;20020;-90
2023/03/19 11:42:21;;;;;;;16.23;13.73;;;12.30;99.90;;;;;;6278586;22;20024;-89
2023/03/19 11:44:55;;;;;;;15.98;13.02;;;12.30;99.90;;;;;;6232824;22;20022;-92
2023/03/19 11:47:47;;;;;;;15.93;13.13;;;12.40;99.90;;;;;;6252724;22;20020;-89
2023/03/19 11:50:21;;;;;;;21.52;16.17;;;12.40;99.90;;;;;;6252265;22;20016;-90
2023/03/19 11:52:58;;;;;;;19.27;15.63;;;12.40;99.90;;;;;;6251769;22;20043;-96
2023/03/19 11:55:53;;;;;;;15.13;13.40;;;12.40;99.90;;;;;;6252336;22;20022;-94
2023/03/19 11:58:43;;;;;;;16.85;13.82;;;12.40;99.90;;;;;;6252548;22;20031;-89
2023/03/19 12:01:34;;;;;;;20.00;15.25;;;12.40;99.90;;;;;;6251666;22;20328;-90
2023/03/19 12:04:25;;;;;;;18.30;14.27;;;12.40;99.90;;;;;;6279291;22;20069;-88
2023/03/19 12:07:15;;;;;;;15.95;12.55;;;12.50;99.90;;;;;;6224582;22;20020;-89
2023/03/19 12:10:29;;;;;;;15.40;12.45;;;12.50;99.90;;;;;;6279429;22;20046;-88
2023/03/19 12:13:16;;;;;;;16.20;12.73;;;12.50;99.90;;;;;;6251728;22;20020;-88
2023/03/19 12:16:07;;;;;;;16.42;12.98;;;12.50;99.90;;;;;;6251376;22;20072;-88
2023/03/19 12:18:47;;;;;;;14.82;12.70;;;12.50;99.90;;;;;;6277358;22;20016;-90
2023/03/19 12:21:40;;;;;;;15.27;12.57;;;12.60;99.90;;;;;;6249533;22;20015;-88
2023/03/19 12:24:38;;;;;;;16.95;13.35;;;12.60;99.90;;;;;;6279280;22;20027;-88
2023/03/19 12:27:37;;;;;;;16.92;12.65;;;12.60;99.90;;;;;;6250914;22;20051;-88
2023/03/19 12:30:20;;;;;;;16.38;12.13;;;12.60;99.90;;;;;;6252143;22;20099;-87
2023/03/19 12:32:52;;;;;;;15.07;12.60;;;12.60;99.90;;;;;;6252387;22;20458;-91
2023/03/19 12:35:27;;;;;;;14.32;11.82;;;12.70;99.90;;;;;;6278286;22;20433;-92
2023/03/19 12:38:17;;;;;;;14.93;12.00;;;12.70;99.90;;;;;;6251533;22;20051;-92
2023/03/19 12:40:51;;;;;;;16.25;12.68;;;12.70;99.90;;;;;;6276995;22;20023;-92
2023/03/19 12:43:24;;;;;;;17.13;12.80;;;12.80;99.90;;;;;;6278452;22;20020;-92
2023/03/19 12:46:05;;;;;;;16.90;13.70;;;12.80;99.90;;;;;;6251804;22;20023;-92
2023/03/19 12:48:44;;;;;;;18.58;15.65;;;12.80;99.90;;;;;;6250032;22;20051;-92
2023/03/19 12:51:31;;;;;;;20.45;14.75;;;12.80;99.90;;;;;;6277992;22;20012;-92
2023/03/19 12:54:54;;;;;;;16.70;13.45;;;12.80;99.90;;;;;;6277731;22;20092;-91